x

Prince Edward Pt (45135) Wave Buoy

3:00pm - Sun 19th Nov 2017 All times are CST. -6 hours from GMT.

  • Sig Wave height 5.9ft
  • Peak Period 7s
  • Wind
    22mph, 29mph gusts
  • Sea Temp 51°f
  • Air Temp 38°f
  • Sea Pressure 1003.7mb
  • Prince Edward Pt
  • Prince Edward Pt

More Historic Weather Station data

Upgrade to MSW Pro to gain access to the past 30 days of data for over 8000 Wavebouys and Weather Stations around the globe.

Join

Comparision Forecast

View Surf forecast
   
Sun 11/19 3:00pm 6ft 7s 22 29 mph 1003.7mb 51f 38f
2:00pm 6ft 7s 22 29 mph 1002.6mb 51f 39f
12:00pm 5ft 7s 20 27 mph 1001.4mb 51f 38f
11:00am 6ft 7s 25 31 mph 1001mb 51f 36f
10:00am 6ft 7s 27 34 mph 1000.8mb 51f 36f
9:00am 5.5ft 7s 27 34 mph 999.8mb 51f 36f
8:00am 5ft 6s 27 34 mph 998.1mb 51f 36f
7:00am 4.5ft 5s 27 31 mph 996.6mb 51f 35f
6:00am 4.5ft 5s 29 38 mph 994.2mb 51f 34f
5:00am 4ft 4s 31 38 mph 990.9mb 51f 36f
4:00am  -   -  31
mph
- - 37f
3:00am 3.5ft 5s 31 38 mph 984.6mb 51f 38f
2:00am 3.5ft 4s 20 27 mph 982.8mb 51f 49f
1:00am 3.5ft 5s 18 22 mph 982.6mb 51f 51f
12:00am 4ft 4s 20 25 mph 983.3mb 51f 51f
Sat 11/18 11:00pm 4ft 5s 22 29 mph 984.7mb 51f 50f
10:00pm 4.5ft 5s 22 27 mph 985.5mb 51f 48f
9:00pm 4.5ft 5s 20 27 mph 988mb 51f 47f
8:00pm 4.5ft 5s 27 31 mph 989.2mb 51f 47f
7:00pm 4ft 5s 25 29 mph 990.7mb 51f 47f
6:00pm 4ft 5s 22 27 mph 992.6mb 51f 47f
5:00pm 4ft 5s 22 27 mph 994.3mb 51f 47f
4:00pm 4ft 5s 22 27 mph 995.1mb 51f 49f
3:00pm 4ft 5s 22 25 mph 995.3mb 51f 49f
2:00pm 4ft 5s 20 25 mph 996.4mb 51f 49f
1:00pm 4.5ft 5s 22 27 mph 997.7mb 51f 48f
12:00pm 4.5ft 5s 22 27 mph 998.2mb 51f 48f
11:00am 4.5ft 5s 22 27 mph 999.1mb 51f 47f
10:00am 4.5ft 5s 22 27 mph 1001.2mb 51f 46f
9:00am 4.5ft 5s 25 29 mph 1002.6mb 51f 44f
8:00am 4.5ft 5s 25 27 mph 1003.1mb 51f 43f
7:00am 4.5ft 5s 25 29 mph 1004.3mb 51f 43f
6:00am 4ft 4s 27 31 mph 1004.9mb 51f 43f
5:00am 3.5ft 4s 25 29 mph 1005.8mb 51f 43f
4:00am 3.5ft 4s 20 27 mph 1007mb 51f 41f
3:00am 3.5ft 4s 20 25 mph 1008.6mb 51f 40f
2:00am 2.5ft 4s 20 25 mph 1010mb 51f 40f
1:00am 2.5ft 4s 18 22 mph 1011.4mb 51f 40f
Fri 11/17 11:00pm 1.3ft 3s 16 20 mph 1014.5mb 50f 39f
10:00pm 1ft 4s 13 18 mph 1015.6mb 50f 39f
9:00pm 1ft 4s 9 13 mph 1016.5mb 50f 39f
8:00pm 1ft 4s 7 11 mph 1017.6mb 50f 38f
7:00pm 1.3ft 4s 4 9 mph 1018.5mb 50f 37f
6:00pm 1.3ft 4s 7 9 mph 1019.9mb 50f 37f
5:00pm 1.6ft 5s 7 11 mph 1020mb 50f 37f
4:00pm 1.6ft 5s 9 13 mph 1020.9mb 50f 36f
3:00pm 1.6ft 4s 11 16 mph 1021.4mb 51f 35f
2:00pm 1.6ft 5s 13 18 mph 1021.7mb 51f 35f
1:00pm 1.6ft 4s 11 13 mph 1022.3mb 51f 34f
12:00pm 2ft 4s 9 13 mph 1022.8mb 51f 33f
11:00am 2.5ft 5s 9 13 mph 1023.2mb 51f 31f
10:00am 2.5ft 5s 11 16 mph 1024mb 51f 29f
9:00am 3ft 6s 13 18 mph 1024.2mb 51f 28f
8:00am 3.5ft 6s 16 22 mph 1024.2mb 51f 28f
7:00am 4ft 5s 18 22 mph 1024.1mb 51f 28f
6:00am 4.5ft 6s 20 27 mph 1023.1mb 51f 28f
5:00am 4.5ft 7s 20 27 mph 1022.4mb 51f 30f
4:00am 4ft 7s 25 31 mph 1021.5mb 51f 31f
3:00am 4.5ft 7s 25 29 mph 1020.6mb 51f 33f
2:00am 5ft 7s 25 29 mph 1019.6mb 51f 34f
1:00am 5ft 6s 20 27 mph 1018.8mb 51f 35f
12:00am 5ft 7s 25 29 mph 1017.8mb 51f 35f
Thu 11/16 11:00pm 5ft 7s 27 34 mph 1017.2mb 51f 36f
9:00pm 6ft 6s 25 31 mph 1015.2mb 51f 38f
8:00pm 6ft 7s 27 36 mph 1014.3mb 51f 39f
7:00pm 6ft 8s 27 34 mph 1013.3mb 51f 39f
6:00pm 6ft 8s 27 34 mph 1012.2mb 51f 41f
5:00pm 7ft 8s 27 31 mph 1011mb 51f 43f
4:00pm 7.5ft 8s 29 36 mph 1009.4mb 51f 43f
3:00pm 8.5ft 8s 27 34 mph 1008.4mb 51f 42f
2:00pm 10ft 8s 34 40 mph 1006mb 51f 45f
1:00pm 9ft 7s 34 40 mph 1005.4mb 52f 47f
12:00pm 8.5ft 8s 34 40 mph 1005.4mb 52f 46f
11:00am 8ft 7s 31 38 mph 1005.3mb 52f 46f
10:00am 8.5ft 8s 29 36 mph 1005.6mb 52f 47f
9:00am 8ft 7s 29 36 mph 1005.6mb 52f 47f
8:00am 9ft 7s 27 34 mph 1005.5mb 52f 47f
7:00am 7ft 6s 29 38 mph 1005.4mb 52f 47f
6:00am 7ft 6s 34 43 mph 1004.4mb 52f 48f
5:00am 7ft 6s 27 36 mph 1004.2mb 52f 49f
4:00am 6ft 6s 29 36 mph 1004.1mb 52f 49f
3:00am 6.5ft 6s 29 36 mph 1004.3mb 52f 49f
2:00am 6.5ft 6s 34 40 mph 1004.4mb 52f 49f
1:00am 7ft 6s 34 40 mph 1005.2mb 52f 49f
12:00am 6.5ft 6s 31 38 mph 1006.1mb 52f 49f
Wed 11/15 11:00pm 7ft 6s 31 38 mph 1007.3mb 52f 48f